Time;durP1;ratioP1;P1;durP2;ratioP2;P2;SDS_P1;SDS_P2;PMS_P1;PMS_P2;Temp;Humidity;BMP_temperature;BMP_pressure;BME280_temperature;BME280_humidity;BME280_pressure;Samples;Min_cycle;Max_cycle;Signal;HPM_P1;HPM_P2
2023/12/09 00:00:37;;;;;;;;;;;19.20;41.50;;;;;;5115770;27;19938;-59
2023/12/09 00:03:04;;;;;;;;;;;19.20;41.50;;;;;;5106407;28;19927;-59
2023/12/09 00:05:32;;;;;;;;;;;19.20;41.50;;;;;;5093862;28;19923;-59
2023/12/09 00:07:59;;;;;;;;;;;19.20;41.50;;;;;;5094579;28;19924;-58
2023/12/09 00:10:26;;;;;;;;;;;19.20;41.50;;;;;;5114495;28;19969;-59
2023/12/09 00:12:53;;;;;;;;;;;19.20;41.50;;;;;;5106430;28;19924;-59
2023/12/09 00:15:20;;;;;;;;;;;19.20;41.50;;;;;;5113885;28;19963;-59
2023/12/09 00:17:46;;;;;;;;;;;19.20;41.50;;;;;;5101168;28;19946;-59
2023/12/09 00:20:13;;;;;;;;;;;19.20;41.50;;;;;;5102581;28;19934;-58
2023/12/09 00:22:42;;;;;;;;;;;19.20;42.10;;;;;;5107498;28;19963;-60
2023/12/09 00:25:09;;;;;;;;;;;19.20;41.50;;;;;;5099546;28;20385;-60
2023/12/09 00:27:36;;;;;;;;;;;19.20;41.50;;;;;;5113038;28;19962;-59
2023/12/09 00:30:03;;;;;;;;;;;19.20;41.50;;;;;;5114426;28;19928;-58
2023/12/09 00:32:30;;;;;;;;;;;19.20;41.50;;;;;;5105663;28;19969;-59
2023/12/09 00:34:57;;;;;;;;;;;19.20;41.60;;;;;;5095461;28;19935;-58
2023/12/09 00:37:24;;;;;;;;;;;19.20;41.50;;;;;;5094852;28;19928;-59
2023/12/09 00:39:52;;;;;;;;;;;19.20;41.50;;;;;;5099165;28;19924;-60
2023/12/09 00:42:18;;;;;;;;;;;19.20;41.50;;;;;;5107690;28;19936;-58
2023/12/09 00:44:45;;;;;;;;;;;19.20;41.50;;;;;;5095079;28;19938;-60
2023/12/09 00:47:12;;;;;;;;;;;19.20;41.40;;;;;;5106587;28;19932;-58
2023/12/09 00:49:39;;;;;;;;;;;19.20;41.50;;;;;;5095287;27;19924;-59
2023/12/09 00:52:06;;;;;;;;;;;19.20;41.40;;;;;;5113577;28;19928;-59
2023/12/09 00:54:32;;;;;;;;;;;19.20;41.40;;;;;;5094844;28;19932;-60
2023/12/09 00:57:00;;;;;;;;;;;19.20;41.40;;;;;;5102744;28;19931;-58
2023/12/09 00:59:27;;;;;;;;;;;19.20;41.50;;;;;;5102967;28;19955;-59
2023/12/09 01:01:54;;;;;;;;;;;19.20;41.40;;;;;;5110283;28;19930;-58
2023/12/09 01:04:21;;;;;;;;;;;19.20;41.40;;;;;;5112972;28;19924;-59
2023/12/09 01:06:47;;;;;;;;;;;19.20;41.40;;;;;;5103565;28;19931;-59
2023/12/09 01:09:14;;;;;;;;;;;19.20;41.40;;;;;;5099789;28;19924;-58
2023/12/09 01:11:41;;;;;;;;;;;19.20;41.40;;;;;;5110673;28;19920;-59
2023/12/09 01:14:09;;;;;;;;;;;19.20;41.40;;;;;;5103023;28;19988;-59
2023/12/09 01:16:36;;;;;;;;;;;19.20;41.40;;;;;;5111922;28;19997;-61
2023/12/09 01:19:03;;;;;;;;;;;19.20;41.40;;;;;;5109770;28;19927;-58
2023/12/09 01:21:30;;;;;;;;;;;19.20;41.40;;;;;;5101056;28;20378;-59
2023/12/09 01:23:56;;;;;;;;;;;19.20;41.40;;;;;;5111584;28;19984;-59
2023/12/09 01:26:23;;;;;;;;;;;19.20;41.40;;;;;;5098444;28;19935;-59
2023/12/09 01:28:50;;;;;;;;;;;19.20;41.40;;;;;;5104040;28;19931;-58
2023/12/09 01:31:18;;;;;;;;;;;19.20;41.40;;;;;;5111393;28;19928;-60
2023/12/09 01:33:45;;;;;;;;;;;19.20;41.40;;;;;;5097634;28;19924;-59
2023/12/09 01:36:12;;;;;;;;;;;19.20;41.40;;;;;;5096808;28;19927;-59
2023/12/09 01:38:38;;;;;;;;;;;19.20;41.40;;;;;;5110787;28;19928;-58
2023/12/09 01:41:05;;;;;;;;;;;19.20;41.40;;;;;;5101743;27;19924;-59
2023/12/09 01:43:32;;;;;;;;;;;19.20;41.40;;;;;;5098199;28;19953;-59
2023/12/09 01:46:01;;;;;;;;;;;19.20;41.40;;;;;;5101025;28;19936;-58
2023/12/09 01:48:29;;;;;;;;;;;19.20;41.40;;;;;;5096563;28;19931;-61
2023/12/09 01:50:56;;;;;;;;;;;19.20;41.40;;;;;;5098415;28;19931;-59
2023/12/09 01:53:22;;;;;;;;;;;19.20;41.40;;;;;;5110964;28;19928;-59
2023/12/09 01:55:49;;;;;;;;;;;19.20;41.30;;;;;;5100066;28;19928;-60
2023/12/09 01:58:17;;;;;;;;;;;19.20;41.40;;;;;;5100758;28;19977;-60
2023/12/09 02:00:44;;;;;;;;;;;19.20;41.30;;;;;;5084309;28;19936;-59
2023/12/09 02:03:11;;;;;;;;;;;19.20;41.30;;;;;;5107995;28;19923;-58
2023/12/09 02:05:40;;;;;;;;;;;19.20;41.30;;;;;;5090004;28;19976;-59
2023/12/09 02:08:07;;;;;;;;;;;19.20;41.30;;;;;;5099581;28;19931;-59
2023/12/09 02:10:33;;;;;;;;;;;19.20;41.30;;;;;;5108412;28;19927;-59
2023/12/09 02:13:02;;;;;;;;;;;19.20;41.30;;;;;;5099147;28;19969;-58
2023/12/09 02:15:31;;;;;;;;;;;19.20;41.30;;;;;;5109050;28;20026;-59
2023/12/09 02:17:59;;;;;;;;;;;19.20;41.30;;;;;;5095776;28;19928;-58
2023/12/09 02:20:26;;;;;;;;;;;19.20;41.30;;;;;;5102401;28;20044;-58
2023/12/09 02:23:02;;;;;;;;;;;19.20;41.30;;;;;;5102550;28;19969;-59
2023/12/09 02:25:29;;;;;;;;;;;19.20;41.30;;;;;;5110792;28;19932;-58
2023/12/09 02:27:57;;;;;;;;;;;19.20;41.30;;;;;;5103631;28;19977;-60
2023/12/09 02:30:25;;;;;;;;;;;19.20;41.30;;;;;;5098486;28;19969;-59
2023/12/09 02:32:52;;;;;;;;;;;19.20;41.30;;;;;;5096985;28;19924;-60
2023/12/09 02:35:19;;;;;;;;;;;19.20;41.30;;;;;;5098843;28;19953;-58
2023/12/09 02:37:45;;;;;;;;;;;19.20;41.30;;;;;;5102259;28;19926;-58
2023/12/09 02:40:14;;;;;;;;;;;19.20;41.30;;;;;;5098765;28;19985;-59
2023/12/09 02:42:40;;;;;;;;;;;19.20;41.30;;;;;;5098977;28;19924;-59
2023/12/09 02:45:07;;;;;;;;;;;19.20;41.30;;;;;;5111118;28;19935;-59
2023/12/09 02:47:34;;;;;;;;;;;19.20;41.30;;;;;;5102352;28;19976;-58
2023/12/09 02:50:01;;;;;;;;;;;19.20;41.30;;;;;;5096185;28;19931;-58
2023/12/09 02:52:28;;;;;;;;;;;19.20;41.20;;;;;;5108860;28;19923;-58
2023/12/09 02:54:54;;;;;;;;;;;19.20;41.30;;;;;;5100216;28;19928;-59
2023/12/09 02:57:22;;;;;;;;;;;19.20;41.30;;;;;;5099247;28;19931;-58
2023/12/09 02:59:49;;;;;;;;;;;19.20;41.20;;;;;;5095903;28;19928;-58
2023/12/09 03:02:16;;;;;;;;;;;19.20;41.20;;;;;;5106539;28;20284;-59
2023/12/09 03:04:43;;;;;;;;;;;19.20;41.20;;;;;;5102510;28;19928;-59
2023/12/09 03:07:09;;;;;;;;;;;19.20;41.30;;;;;;5097746;28;19977;-58
2023/12/09 03:09:36;;;;;;;;;;;19.20;41.20;;;;;;5095076;28;19933;-60
2023/12/09 03:12:03;;;;;;;;;;;19.20;41.30;;;;;;5100585;28;19931;-59
2023/12/09 03:14:31;;;;;;;;;;;19.20;41.20;;;;;;5109985;28;19924;-59
2023/12/09 03:16:58;;;;;;;;;;;19.20;41.20;;;;;;5104432;28;19932;-58
2023/12/09 03:19:25;;;;;;;;;;;19.20;41.20;;;;;;5108530;28;19931;-59
2023/12/09 03:21:51;;;;;;;;;;;19.20;41.20;;;;;;5108281;28;19934;-59
2023/12/09 03:24:18;;;;;;;;;;;19.20;41.30;;;;;;5102242;28;19931;-60
2023/12/09 03:26:45;;;;;;;;;;;19.20;41.30;;;;;;5099284;28;19932;-59
2023/12/09 03:29:12;;;;;;;;;;;19.20;41.20;;;;;;5098364;28;19928;-59
2023/12/09 03:31:42;;;;;;;;;;;19.20;41.20;;;;;;5113192;28;19935;-60
2023/12/09 03:34:08;;;;;;;;;;;19.20;41.90;;;;;;5113815;28;19970;-61
2023/12/09 03:36:35;;;;;;;;;;;19.20;41.20;;;;;;5097942;28;19927;-62
2023/12/09 03:39:03;;;;;;;;;;;19.20;41.30;;;;;;5096721;28;19924;-61
2023/12/09 03:41:29;;;;;;;;;;;19.20;41.20;;;;;;5096539;28;19966;-60
2023/12/09 03:43:56;;;;;;;;;;;19.20;41.20;;;;;;5114860;28;19959;-61
2023/12/09 03:46:23;;;;;;;;;;;19.20;41.30;;;;;;5095783;28;19924;-61
2023/12/09 03:48:51;;;;;;;;;;;19.20;41.20;;;;;;5113388;28;19938;-61
2023/12/09 03:51:18;;;;;;;;;;;19.20;41.30;;;;;;5097042;28;19924;-60
2023/12/09 03:53:44;;;;;;;;;;;19.20;41.20;;;;;;5094130;28;20060;-60
2023/12/09 03:56:11;;;;;;;;;;;19.20;41.70;;;;;;5103781;28;19924;-61
2023/12/09 03:58:38;;;;;;;;;;;19.20;41.20;;;;;;5102528;28;19923;-60
2023/12/09 04:01:05;;;;;;;;;;;19.10;41.20;;;;;;5096497;28;19932;-61
2023/12/09 04:03:32;;;;;;;;;;;19.20;41.30;;;;;;5098951;28;19923;-60
2023/12/09 04:06:01;;;;;;;;;;;19.20;41.20;;;;;;5111616;28;19930;-59
2023/12/09 04:08:27;;;;;;;;;;;19.20;41.90;;;;;;5107054;28;19924;-60
2023/12/09 04:10:54;;;;;;;;;;;19.20;41.30;;;;;;5111488;27;19928;-58
2023/12/09 04:13:21;;;;;;;;;;;19.20;41.30;;;;;;5109743;28;20132;-59
2023/12/09 04:15:48;;;;;;;;;;;19.20;41.30;;;;;;5092804;28;19931;-58
2023/12/09 04:18:15;;;;;;;;;;;19.20;41.30;;;;;;5096024;28;19988;-59
2023/12/09 04:20:42;;;;;;;;;;;19.20;41.30;;;;;;5101024;28;20019;-58
2023/12/09 04:23:10;;;;;;;;;;;19.20;41.30;;;;;;5102654;28;19929;-59
2023/12/09 04:25:37;;;;;;;;;;;19.20;41.30;;;;;;5115390;27;19935;-59
2023/12/09 04:28:04;;;;;;;;;;;19.20;41.30;;;;;;5099919;28;19923;-59
2023/12/09 04:30:31;;;;;;;;;;;19.20;41.30;;;;;;5093806;28;19924;-59
2023/12/09 04:32:57;;;;;;;;;;;19.20;41.30;;;;;;5103597;28;19931;-59
2023/12/09 04:35:24;;;;;;;;;;;19.20;41.30;;;;;;5102531;28;20270;-59
2023/12/09 04:37:51;;;;;;;;;;;19.20;41.30;;;;;;5102905;28;19935;-58
2023/12/09 04:40:19;;;;;;;;;;;19.20;41.30;;;;;;5104182;28;19923;-59
2023/12/09 04:42:46;;;;;;;;;;;19.20;41.30;;;;;;5110924;28;19935;-58
2023/12/09 04:45:13;;;;;;;;;;;19.20;41.30;;;;;;5099134;28;19934;-59
2023/12/09 04:47:39;;;;;;;;;;;19.20;41.30;;;;;;5100118;27;19931;-58
2023/12/09 04:50:08;;;;;;;;;;;19.20;41.30;;;;;;5104459;28;19928;-58
2023/12/09 04:52:35;;;;;;;;;;;19.20;41.30;;;;;;5108330;28;19924;-58
2023/12/09 04:55:01;;;;;;;;;;;19.20;41.30;;;;;;5108453;28;19924;-59
2023/12/09 04:57:30;;;;;;;;;;;19.20;41.30;;;;;;5103421;28;19931;-58
2023/12/09 04:59:56;;;;;;;;;;;19.20;41.30;;;;;;5107415;28;19932;-58
2023/12/09 05:02:23;;;;;;;;;;;19.20;41.40;;;;;;5098106;28;19932;-58
2023/12/09 05:04:50;;;;;;;;;;;19.20;41.30;;;;;;5098469;28;19927;-58
2023/12/09 05:07:17;;;;;;;;;;;19.20;41.40;;;;;;5097351;28;19939;-59
2023/12/09 05:09:44;;;;;;;;;;;19.20;41.40;;;;;;5114028;28;20339;-58
2023/12/09 05:12:10;;;;;;;;;;;19.20;41.40;;;;;;5100188;28;19924;-58
2023/12/09 05:14:39;;;;;;;;;;;19.20;41.40;;;;;;5112913;28;20558;-58
2023/12/09 05:17:05;;;;;;;;;;;19.20;41.30;;;;;;5102917;28;19959;-59
2023/12/09 05:19:32;;;;;;;;;;;19.20;41.30;;;;;;5090192;28;19924;-58
2023/12/09 05:21:59;;;;;;;;;;;19.20;41.30;;;;;;5092953;28;19923;-59
2023/12/09 05:24:26;;;;;;;;;;;19.20;41.30;;;;;;5101012;28;19931;-58
2023/12/09 05:26:53;;;;;;;;;;;19.20;41.30;;;;;;5098635;28;19931;-58
2023/12/09 05:29:20;;;;;;;;;;;19.20;41.30;;;;;;5106312;28;20135;-59
2023/12/09 05:31:48;;;;;;;;;;;19.20;41.30;;;;;;5102725;28;19973;-59
2023/12/09 05:34:15;;;;;;;;;;;19.20;41.30;;;;;;5093925;28;19923;-58
2023/12/09 05:36:41;;;;;;;;;;;19.20;41.40;;;;;;5099661;28;20000;-58
2023/12/09 05:39:08;;;;;;;;;;;19.20;41.30;;;;;;5108097;27;20002;-59
2023/12/09 05:41:35;;;;;;;;;;;19.20;41.30;;;;;;5097413;28;19927;-59
2023/12/09 05:44:02;;;;;;;;;;;19.20;41.40;;;;;;5104320;28;19928;-59
2023/12/09 05:46:29;;;;;;;;;;;19.20;41.40;;;;;;5095459;28;19923;-59
2023/12/09 05:48:57;;;;;;;;;;;19.20;41.40;;;;;;5095285;28;19928;-59
2023/12/09 05:51:23;;;;;;;;;;;19.20;41.30;;;;;;5097052;28;20312;-59
2023/12/09 05:53:50;;;;;;;;;;;19.20;41.40;;;;;;5097126;28;19976;-58
2023/12/09 05:56:17;;;;;;;;;;;19.20;41.40;;;;;;5095085;28;20184;-60
2023/12/09 05:58:44;;;;;;;;;;;19.20;41.40;;;;;;5108758;27;20276;-59
2023/12/09 06:01:11;;;;;;;;;;;19.20;41.40;;;;;;5098588;28;19963;-59
2023/12/09 06:03:38;;;;;;;;;;;19.20;41.40;;;;;;5099165;28;19931;-59
2023/12/09 06:06:06;;;;;;;;;;;19.20;41.40;;;;;;5112321;28;19968;-59
2023/12/09 06:08:33;;;;;;;;;;;19.20;41.40;;;;;;5099981;28;19927;-59
2023/12/09 06:11:00;;;;;;;;;;;19.10;41.30;;;;;;5094395;28;19977;-59
2023/12/09 06:13:27;;;;;;;;;;;19.20;41.40;;;;;;5111731;28;19924;-59
2023/12/09 06:15:53;;;;;;;;;;;19.20;41.40;;;;;;5094260;28;19931;-59
2023/12/09 06:18:20;;;;;;;;;;;19.20;41.40;;;;;;5099852;28;19923;-59
2023/12/09 06:20:47;;;;;;;;;;;19.20;41.40;;;;;;5091375;28;19946;-60
2023/12/09 06:23:15;;;;;;;;;;;19.20;41.40;;;;;;5097824;28;19930;-59
2023/12/09 06:25:42;;;;;;;;;;;19.20;41.40;;;;;;5101276;28;19924;-59
2023/12/09 06:28:09;;;;;;;;;;;19.20;41.40;;;;;;5100164;28;19928;-59
2023/12/09 06:30:39;;;;;;;;;;;19.20;41.40;;;;;;5093790;28;19923;-59
2023/12/09 06:33:05;;;;;;;;;;;19.20;41.70;;;;;;5097168;28;20399;-59
2023/12/09 06:35:32;;;;;;;;;;;19.20;41.40;;;;;;5111941;28;20035;-59
2023/12/09 06:37:59;;;;;;;;;;;19.20;41.40;;;;;;5096323;28;19923;-59
2023/12/09 06:40:27;;;;;;;;;;;19.20;41.40;;;;;;5097980;28;20430;-59
2023/12/09 06:42:54;;;;;;;;;;;19.20;41.40;;;;;;5116469;28;19924;-59
2023/12/09 06:45:21;;;;;;;;;;;19.20;41.40;;;;;;5101136;28;19924;-59
2023/12/09 06:47:48;;;;;;;;;;;19.20;41.40;;;;;;5099862;28;19991;-59
2023/12/09 06:50:14;;;;;;;;;;;19.20;41.40;;;;;;5106373;28;19973;-59
2023/12/09 06:52:41;;;;;;;;;;;19.20;41.40;;;;;;5115859;28;19924;-59
2023/12/09 06:55:09;;;;;;;;;;;19.20;41.40;;;;;;5106155;27;19928;-59
2023/12/09 06:57:37;;;;;;;;;;;19.10;41.30;;;;;;5095389;28;19924;-58
2023/12/09 07:00:07;;;;;;;;;;;19.20;41.40;;;;;;5103675;28;19924;-59
2023/12/09 07:02:34;;;;;;;;;;;19.20;41.40;;;;;;5103969;28;19928;-60
2023/12/09 07:05:00;;;;;;;;;;;19.20;41.40;;;;;;5101587;28;19932;-60
2023/12/09 07:07:27;;;;;;;;;;;19.20;41.40;;;;;;5106308;28;19924;-59
2023/12/09 07:09:55;;;;;;;;;;;19.20;41.40;;;;;;5097493;28;19935;-59
2023/12/09 07:12:22;;;;;;;;;;;19.20;41.50;;;;;;5116310;28;19924;-59
2023/12/09 07:14:50;;;;;;;;;;;19.20;41.40;;;;;;5097948;28;20025;-59
2023/12/09 07:17:17;;;;;;;;;;;19.20;41.50;;;;;;5105247;28;19936;-59
2023/12/09 07:19:44;;;;;;;;;;;19.20;41.50;;;;;;5108414;28;19939;-60
2023/12/09 07:22:11;;;;;;;;;;;19.20;41.50;;;;;;5098701;28;19954;-59
2023/12/09 07:24:37;;;;;;;;;;;19.20;41.50;;;;;;5099261;28;19928;-60
2023/12/09 07:27:04;;;;;;;;;;;19.20;41.50;;;;;;5105367;28;20381;-60
2023/12/09 07:29:31;;;;;;;;;;;19.20;41.50;;;;;;5106666;28;19927;-60
2023/12/09 07:32:00;;;;;;;;;;;19.20;41.50;;;;;;5097991;28;19924;-59
2023/12/09 07:34:27;;;;;;;;;;;19.20;41.50;;;;;;5096462;28;19924;-59
2023/12/09 07:36:54;;;;;;;;;;;19.20;41.50;;;;;;5100808;28;19924;-60
2023/12/09 07:39:20;;;;;;;;;;;19.20;41.50;;;;;;5106201;28;19924;-59
2023/12/09 07:41:50;;;;;;;;;;;19.20;41.50;;;;;;5103788;28;19927;-60
2023/12/09 07:44:17;;;;;;;;;;;19.20;41.50;;;;;;5112033;28;20023;-61
2023/12/09 07:46:43;;;;;;;;;;;19.20;41.60;;;;;;5099773;28;19981;-61
2023/12/09 07:49:12;;;;;;;;;;;19.20;41.50;;;;;;5102803;28;19924;-59
2023/12/09 07:51:38;;;;;;;;;;;19.20;41.60;;;;;;5102278;28;19924;-61
2023/12/09 07:54:05;;;;;;;;;;;19.20;41.50;;;;;;5095046;27;19950;-60
2023/12/09 07:56:32;;;;;;;;;;;19.20;41.60;;;;;;5111623;28;20292;-60
2023/12/09 07:58:59;;;;;;;;;;;19.20;41.60;;;;;;5096615;28;19924;-60
2023/12/09 08:01:27;;;;;;;;;;;19.20;41.60;;;;;;5092893;28;20080;-61
2023/12/09 08:03:53;;;;;;;;;;;19.20;41.60;;;;;;5098939;28;19984;-60
2023/12/09 08:06:21;;;;;;;;;;;19.20;41.60;;;;;;5100056;28;19931;-59
2023/12/09 08:08:50;;;;;;;;;;;19.20;41.50;;;;;;5096958;28;19968;-59
2023/12/09 08:11:17;;;;;;;;;;;19.20;41.60;;;;;;5109351;28;19947;-60
2023/12/09 08:13:44;;;;;;;;;;;19.20;41.60;;;;;;5093141;28;19924;-60
2023/12/09 08:16:11;;;;;;;;;;;19.20;41.50;;;;;;5097586;28;19934;-60
2023/12/09 08:18:38;;;;;;;;;;;19.20;41.60;;;;;;5101983;28;19924;-59
2023/12/09 08:21:05;;;;;;;;;;;19.20;41.60;;;;;;5101705;28;19928;-59
2023/12/09 08:23:33;;;;;;;;;;;19.20;41.60;;;;;;5098331;28;19932;-59
2023/12/09 08:26:00;;;;;;;;;;;19.20;41.60;;;;;;5099514;28;20024;-59
2023/12/09 08:28:28;;;;;;;;;;;19.20;41.60;;;;;;5113604;28;19928;-59
2023/12/09 08:30:53;;;;;;;;;;;19.20;41.60;;;;;;5099995;28;19928;-60
2023/12/09 08:33:20;;;;;;;;;;;19.20;41.60;;;;;;5096493;28;19928;-59
2023/12/09 08:35:47;;;;;;;;;;;19.20;41.60;;;;;;5113469;28;19946;-59
2023/12/09 08:38:14;;;;;;;;;;;19.20;41.60;;;;;;5104015;28;19924;-60
2023/12/09 08:40:42;;;;;;;;;;;19.20;41.60;;;;;;5097524;28;20024;-61
2023/12/09 08:43:09;;;;;;;;;;;19.20;41.60;;;;;;5104175;28;19984;-60
2023/12/09 08:45:36;;;;;;;;;;;19.20;41.60;;;;;;5096687;28;19923;-61
2023/12/09 08:48:03;;;;;;;;;;;19.20;41.60;;;;;;5110781;28;19939;-61
2023/12/09 08:50:29;;;;;;;;;;;19.20;41.60;;;;;;5100321;28;19924;-60
2023/12/09 08:52:57;;;;;;;;;;;19.20;41.60;;;;;;5105767;28;19932;-61
2023/12/09 08:55:24;;;;;;;;;;;19.20;41.60;;;;;;5097478;28;19973;-61
2023/12/09 08:57:52;;;;;;;;;;;19.20;41.60;;;;;;5109680;28;19924;-62
2023/12/09 09:00:20;;;;;;;;;;;19.20;41.70;;;;;;5093625;28;19924;-60
2023/12/09 09:02:47;;;;;;;;;;;19.20;41.60;;;;;;5112595;28;19930;-60
2023/12/09 09:05:13;;;;;;;;;;;19.20;41.70;;;;;;5099858;28;19931;-60
2023/12/09 09:07:43;;;;;;;;;;;19.20;41.70;;;;;;5097340;28;19931;-61
2023/12/09 09:10:10;;;;;;;;;;;19.20;41.60;;;;;;5100207;28;19939;-60
2023/12/09 09:12:37;;;;;;;;;;;19.20;41.60;;;;;;5112710;28;19955;-61
2023/12/09 09:15:06;;;;;;;;;;;19.20;41.70;;;;;;5100884;28;19924;-60
2023/12/09 09:17:34;;;;;;;;;;;19.20;41.70;;;;;;5090989;28;19959;-61
2023/12/09 09:20:01;;;;;;;;;;;19.20;41.70;;;;;;5113217;28;20014;-61
2023/12/09 09:22:28;;;;;;;;;;;19.20;41.70;;;;;;5097265;28;19972;-60
2023/12/09 09:24:55;;;;;;;;;;;19.20;41.70;;;;;;5098109;28;19960;-62
2023/12/09 09:27:22;;;;;;;;;;;19.20;41.70;;;;;;5095170;28;20026;-60
2023/12/09 09:29:49;;;;;;;;;;;19.20;41.70;;;;;;5097690;28;19928;-60
2023/12/09 09:32:17;;;;;;;;;;;19.20;41.70;;;;;;5111399;28;19976;-60
2023/12/09 09:34:44;;;;;;;;;;;19.20;41.70;;;;;;5091707;28;19927;-61
2023/12/09 09:37:11;;;;;;;;;;;19.20;41.70;;;;;;5098566;28;19988;-60
2023/12/09 09:39:37;;;;;;;;;;;19.20;41.70;;;;;;5111671;28;19924;-61
2023/12/09 09:42:05;;;;;;;;;;;19.20;41.70;;;;;;5097312;28;19924;-60
2023/12/09 09:44:32;;;;;;;;;;;19.20;41.70;;;;;;5106939;28;20311;-60
2023/12/09 09:46:59;;;;;;;;;;;19.20;41.70;;;;;;5091038;28;20373;-60
2023/12/09 09:49:27;;;;;;;;;;;19.20;41.70;;;;;;5095892;28;19923;-61
2023/12/09 09:51:54;;;;;;;;;;;19.20;41.70;;;;;;5103042;28;19931;-60
2023/12/09 09:54:21;;;;;;;;;;;19.20;41.70;;;;;;5112219;28;19927;-59
2023/12/09 09:56:49;;;;;;;;;;;19.20;41.80;;;;;;5099969;28;20015;-60
2023/12/09 09:59:15;;;;;;;;;;;19.20;41.70;;;;;;5093774;28;19973;-59
2023/12/09 10:01:42;;;;;;;;;;;19.20;41.80;;;;;;5090228;28;19935;-60
2023/12/09 10:04:09;;;;;;;;;;;19.20;41.80;;;;;;5091974;28;19988;-58
2023/12/09 10:06:37;;;;;;;;;;;19.20;41.70;;;;;;5110631;27;19924;-58
2023/12/09 10:09:04;;;;;;;;;;;19.20;41.80;;;;;;5095965;28;19931;-58
2023/12/09 10:11:31;;;;;;;;;;;19.20;41.80;;;;;;5114590;27;19931;-57
2023/12/09 10:13:57;;;;;;;;;;;19.20;41.80;;;;;;5097123;28;19931;-60
2023/12/09 10:16:24;;;;;;;;;;;19.20;41.80;;;;;;5102350;28;19931;-60
2023/12/09 10:18:52;;;;;;;;;;;19.20;41.80;;;;;;5101128;28;19935;-60
2023/12/09 10:21:18;;;;;;;;;;;19.20;41.80;;;;;;5117097;27;19923;-60
2023/12/09 10:23:47;;;;;;;;;;;19.20;41.70;;;;;;5091149;28;19953;-60
2023/12/09 10:26:14;;;;;;;;;;;19.20;41.70;;;;;;5093280;28;19924;-60
2023/12/09 10:28:40;;;;;;;;;;;19.20;41.70;;;;;;5117201;27;20059;-58
2023/12/09 10:31:08;;;;;;;;;;;19.20;41.70;;;;;;5096180;28;19973;-59
2023/12/09 10:33:35;;;;;;;;;;;19.20;41.70;;;;;;5090931;28;19919;-58
2023/12/09 10:36:01;;;;;;;;;;;19.20;41.70;;;;;;5102759;28;19938;-58
2023/12/09 10:38:28;;;;;;;;;;;19.20;41.70;;;;;;5090238;28;19927;-59
2023/12/09 10:40:57;;;;;;;;;;;19.20;41.70;;;;;;5114366;28;20319;-58
2023/12/09 10:43:24;;;;;;;;;;;19.20;41.70;;;;;;5093347;28;19945;-58
2023/12/09 10:45:51;;;;;;;;;;;19.20;41.70;;;;;;5113413;28;19930;-57
2023/12/09 10:48:18;;;;;;;;;;;19.20;41.80;;;;;;5088117;28;19924;-58
2023/12/09 10:50:44;;;;;;;;;;;19.20;41.80;;;;;;5094419;28;19999;-58
2023/12/09 10:53:11;;;;;;;;;;;19.20;41.80;;;;;;5094169;28;19939;-58
2023/12/09 10:55:39;;;;;;;;;;;19.20;41.80;;;;;;5116859;28;19949;-58
2023/12/09 10:58:07;;;;;;;;;;;19.20;41.80;;;;;;5095865;28;19959;-58
2023/12/09 11:00:36;;;;;;;;;;;19.20;41.70;;;;;;5112213;28;19977;-58
2023/12/09 11:03:03;;;;;;;;;;;19.20;41.70;;;;;;5103158;28;19935;-58
2023/12/09 11:05:29;;;;;;;;;;;19.20;41.60;;;;;;5095285;28;19977;-58
2023/12/09 11:07:57;;;;;;;;;;;19.20;41.60;;;;;;5096525;28;19931;-59
2023/12/09 11:10:24;;;;;;;;;;;19.20;41.60;;;;;;5093884;28;19984;-59
2023/12/09 11:12:50;;;;;;;;;;;19.20;41.60;;;;;;5109304;28;19928;-58
2023/12/09 11:15:19;;;;;;;;;;;19.20;41.60;;;;;;5093173;28;19924;-59
2023/12/09 11:17:47;;;;;;;;;;;19.20;41.50;;;;;;5092429;28;19990;-58
2023/12/09 11:20:14;;;;;;;;;;;19.20;41.60;;;;;;5103922;28;19981;-57
2023/12/09 11:22:41;;;;;;;;;;;19.20;41.60;;;;;;5110994;28;19973;-58
2023/12/09 11:25:08;;;;;;;;;;;19.20;41.60;;;;;;5114816;28;19927;-58
2023/12/09 11:27:35;;;;;;;;;;;19.20;41.60;;;;;;5114455;28;19923;-58
2023/12/09 11:30:02;;;;;;;;;;;19.20;41.60;;;;;;5114501;27;19962;-58
2023/12/09 11:32:30;;;;;;;;;;;19.20;41.60;;;;;;5114033;28;19972;-58
2023/12/09 11:34:57;;;;;;;;;;;19.20;41.60;;;;;;5107790;28;20308;-58
2023/12/09 11:37:24;;;;;;;;;;;19.20;41.60;;;;;;5097387;28;19931;-58
2023/12/09 11:39:51;;;;;;;;;;;19.20;41.70;;;;;;5102238;28;19970;-59
2023/12/09 11:42:18;;;;;;;;;;;19.20;41.60;;;;;;5106839;28;19930;-58
2023/12/09 11:44:46;;;;;;;;;;;19.20;41.70;;;;;;5099750;28;19924;-58
2023/12/09 11:47:13;;;;;;;;;;;19.20;41.70;;;;;;5109683;28;19970;-59
2023/12/09 11:49:41;;;;;;;;;;;19.30;41.70;;;;;;5085311;28;19928;-58
2023/12/09 11:52:08;;;;;;;;;;;19.20;41.70;;;;;;5115116;28;19928;-58
2023/12/09 11:54:35;;;;;;;;;;;19.30;41.80;;;;;;5096977;28;19927;-59
2023/12/09 11:57:02;;;;;;;;;;;19.20;41.80;;;;;;5096912;28;19997;-58
2023/12/09 11:59:29;;;;;;;;;;;19.30;41.80;;;;;;5103241;28;19924;-58
2023/12/09 12:01:55;;;;;;;;;;;19.20;41.80;;;;;;5114071;28;19924;-58
2023/12/09 12:04:23;;;;;;;;;;;19.30;41.90;;;;;;5095656;28;19928;-58
2023/12/09 12:06:51;;;;;;;;;;;19.30;41.80;;;;;;5100418;28;19924;-58
2023/12/09 12:09:18;;;;;;;;;;;19.30;41.80;;;;;;5103917;28;19935;-57
2023/12/09 12:11:44;;;;;;;;;;;19.30;41.80;;;;;;5103946;28;20595;-58
2023/12/09 12:14:11;;;;;;;;;;;19.30;41.80;;;;;;5095451;28;19928;-58
2023/12/09 12:16:38;;;;;;;;;;;19.30;41.80;;;;;;5104605;28;19927;-58
2023/12/09 12:19:05;;;;;;;;;;;19.30;41.80;;;;;;5111745;27;19935;-59
2023/12/09 12:21:32;;;;;;;;;;;19.30;41.80;;;;;;5096183;28;19928;-58
2023/12/09 12:24:03;;;;;;;;;;;19.30;41.80;;;;;;5111326;28;20022;-60
2023/12/09 12:26:29;;;;;;;;;;;19.30;41.80;;;;;;5091188;28;19946;-60
2023/12/09 12:28:57;;;;;;;;;;;19.30;41.80;;;;;;5092729;28;19928;-59
2023/12/09 12:31:25;;;;;;;;;;;19.30;41.80;;;;;;5086093;28;19924;-60
2023/12/09 12:33:51;;;;;;;;;;;19.30;41.80;;;;;;5091629;28;19980;-60
2023/12/09 12:36:19;;;;;;;;;;;19.30;41.80;;;;;;5091332;28;19939;-60
2023/12/09 12:38:46;;;;;;;;;;;19.30;41.80;;;;;;5106643;28;19931;-60
2023/12/09 12:41:15;;;;;;;;;;;19.30;41.80;;;;;;5103869;28;19977;-60
2023/12/09 12:43:41;;;;;;;;;;;19.30;41.80;;;;;;5095171;28;19932;-59
2023/12/09 12:46:08;;;;;;;;;;;19.30;41.80;;;;;;5093234;28;19934;-60
2023/12/09 12:48:35;;;;;;;;;;;19.30;41.80;;;;;;5099663;28;19924;-60
2023/12/09 12:51:02;;;;;;;;;;;19.30;41.80;;;;;;5083212;28;19932;-60
2023/12/09 12:53:29;;;;;;;;;;;19.30;41.80;;;;;;5090211;28;20385;-60
2023/12/09 12:55:56;;;;;;;;;;;19.30;41.80;;;;;;5095166;28;19924;-60
2023/12/09 12:58:26;;;;;;;;;;;19.30;41.80;;;;;;5094386;28;20711;-60
2023/12/09 13:00:54;;;;;;;;;;;19.30;41.80;;;;;;5111209;28;19924;-60
2023/12/09 13:03:23;;;;;;;;;;;19.30;41.80;;;;;;5092701;28;19927;-60
2023/12/09 13:05:49;;;;;;;;;;;19.30;41.80;;;;;;5112170;28;19924;-60
2023/12/09 13:08:16;;;;;;;;;;;19.30;41.80;;;;;;5089089;28;19928;-60
2023/12/09 13:10:43;;;;;;;;;;;19.30;41.80;;;;;;5099242;28;19933;-60
2023/12/09 13:13:10;;;;;;;;;;;19.30;41.80;;;;;;5108528;28;19931;-60
2023/12/09 13:15:38;;;;;;;;;;;19.30;41.80;;;;;;5099362;28;20498;-60
2023/12/09 13:18:05;;;;;;;;;;;19.30;41.80;;;;;;5093314;28;19924;-60
2023/12/09 13:20:32;;;;;;;;;;;19.30;41.80;;;;;;5108222;27;19927;-61
2023/12/09 13:22:59;;;;;;;;;;;19.30;41.80;;;;;;5087257;28;19931;-60
2023/12/09 13:25:26;;;;;;;;;;;19.30;41.80;;;;;;5088932;28;19935;-60
2023/12/09 13:27:52;;;;;;;;;;;19.30;41.80;;;;;;5096898;28;19935;-59
2023/12/09 13:30:19;;;;;;;;;;;19.30;41.80;;;;;;5095829;28;19935;-60
2023/12/09 13:32:47;;;;;;;;;;;19.30;41.80;;;;;;5081529;28;19924;-61
2023/12/09 13:35:14;;;;;;;;;;;19.30;41.80;;;;;;5104219;28;19930;-61
2023/12/09 13:37:42;;;;;;;;;;;19.30;41.90;;;;;;5098675;28;19924;-59
2023/12/09 13:40:11;;;;;;;;;;;19.30;41.90;;;;;;5092382;28;19931;-60
2023/12/09 13:42:37;;;;;;;;;;;19.30;41.80;;;;;;5098016;28;19952;-60
2023/12/09 13:45:05;;;;;;;;;;;19.30;41.80;;;;;;5105403;28;20014;-61
2023/12/09 13:47:31;;;;;;;;;;;19.40;42.00;;;;;;5106515;28;19930;-60
2023/12/09 13:50:00;;;;;;;;;;;19.30;41.80;;;;;;5094836;28;19931;-61
2023/12/09 13:52:27;;;;;;;;;;;19.30;41.80;;;;;;5090951;28;20276;-61
2023/12/09 13:54:54;;;;;;;;;;;19.30;41.80;;;;;;5088435;28;19924;-60
2023/12/09 13:57:20;;;;;;;;;;;19.30;41.90;;;;;;5091210;28;19924;-59
2023/12/09 13:59:47;;;;;;;;;;;19.30;41.90;;;;;;5089883;28;19924;-61
2023/12/09 14:02:14;;;;;;;;;;;19.40;41.90;;;;;;5109419;28;19930;-61
2023/12/09 14:04:41;;;;;;;;;;;19.30;41.90;;;;;;5092008;28;19924;-61
2023/12/09 14:07:09;;;;;;;;;;;19.30;41.90;;;;;;5098812;28;19936;-60
2023/12/09 14:09:37;;;;;;;;;;;19.30;41.80;;;;;;5102186;28;19932;-59
2023/12/09 14:12:04;;;;;;;;;;;19.30;41.90;;;;;;5093841;28;20019;-59
2023/12/09 14:14:31;;;;;;;;;;;19.30;41.90;;;;;;5104328;28;19924;-59